Airfield :
LOGIN :

Register | Disclaimer

   EN    FR    IT 

 










Legend :    VFR   Marginal VFR   IFR   Intensive IFR   Very Intensive IFR
Visi :
Ceiling :
>= 8 km
>= 3000ft
5 to 8 km
1000 to 3000 ft
1500m to 5 km
500 to 1000 ft
800 to 1500m
200 to 500 ft
< 800m
< 200 ft
Symbols :   Thunderstorms  Fog  Heavy snow  Heavy precipitations  Wind > 20 kt
SIGMETs :     Misc.  Thunderstorms  Icing  Turbulence  Mountain Waves  Volcanic Ashes






- Airport Elevation : 388 ft
- IATA code : QYR


LFQB - Troyes Barberey

CURRENT METAR :
  • 011130Z AUTO 04008KT 010V080 CAVOK 10/M04 Q1019

EXPIRED METARs :
  • 011100Z AUTO 04008KT 350V090 CAVOK 09/M05 Q1020
  • 011030Z AUTO 05009KT 010V080 CAVOK 09/M05 Q1020
  • 011000Z AUTO 05009KT 020V080 CAVOK 08/M04 Q1020
  • 010930Z AUTO 06007KT 020V090 CAVOK 07/M04 Q1021
  • 010900Z AUTO 08007KT 030V110 CAVOK 06/M03 Q1021

TAF N/A



MET'MAP, your aeronautical weather chart ! - Copyright ORBIFLY December 2007 - Disclaimer

ORBIFLY MET'MAP TEAM :

Programming & Development : Alexandra Zaïnal
Concept & original design : Baudouin d'Aumeries
Assistance for programming : Marc-Olivier Méhu
Technical & hardware support : Manuel Goepfert

Contact : metmap@orbifly.com




SOURCES & CREDITS :

   NOAA